012  
SXUS95 KTFX 091930  
MTTTFX  
 
AREA AWOS OBSERVATIONS  
NATIONAL WEATHER SERVICE GREAT FALLS MT  
1230 PM MST FRI DEC 9 2022  
 
METAR KHRF 091930Z AUTO 18004KT 10SM FEW048 BKN055 02/M06 A2990 RMK AO2 HAMILTON  
 
CLICK HERE TO GO TO PREVIOUS BULLETINS.

The Nexlab MT Page Main Text Page